createdAt,value
2019-04-07T00:00:32.825Z,30.37
2019-04-07T00:02:36.717Z,25.43
2019-04-07T00:04:40.791Z,31.93
2019-04-07T00:06:45.341Z,30.73
2019-04-07T00:08:49.748Z,29.57
2019-04-07T00:10:53.825Z,32.17
2019-04-07T00:12:57.744Z,30.50
2019-04-07T00:15:01.689Z,29.33
2019-04-07T00:17:05.718Z,31.07
2019-04-07T00:19:09.857Z,28.70
2019-04-07T00:21:13.824Z,29.70
2019-04-07T00:23:17.725Z,29.70
2019-04-07T00:25:21.657Z,29.57
2019-04-07T00:27:25.732Z,31.03
2019-04-07T00:29:29.720Z,31.33
2019-04-07T00:31:33.615Z,32.13
2019-04-07T00:33:37.513Z,33.13
2019-04-07T00:35:41.452Z,29.80
2019-04-07T00:37:45.347Z,31.00
2019-04-07T00:39:49.228Z,33.23
2019-04-07T00:41:53.174Z,32.00
2019-04-07T00:43:57.205Z,30.73
2019-04-07T00:46:01.368Z,30.90
2019-04-07T00:48:05.786Z,32.10
2019-04-07T00:50:09.707Z,33.17
2019-04-07T00:52:15.205Z,34.17
2019-04-07T00:54:19.104Z,35.00
2019-04-07T00:56:23.666Z,33.50
2019-04-07T00:58:28.107Z,35.00
2019-04-07T01:00:33.616Z,34.10
2019-04-07T01:02:37.611Z,31.97
2019-04-07T01:04:41.878Z,25.93
2019-04-07T01:06:45.885Z,32.37
2019-04-07T01:08:49.760Z,34.53
2019-04-07T01:10:53.666Z,33.53
2019-04-07T01:12:57.581Z,34.33
2019-04-07T01:15:02.256Z,34.23
2019-04-07T01:17:06.190Z,30.27
2019-04-07T01:19:10.129Z,27.63
2019-04-07T01:21:14.029Z,33.27
2019-04-07T01:23:18.190Z,30.97
2019-04-07T01:25:22.557Z,31.43
2019-04-07T01:27:27.006Z,35.03
2019-04-07T01:29:31.036Z,34.57
2019-04-07T01:31:35.218Z,34.00
2019-04-07T01:33:39.130Z,35.17
2019-04-07T01:35:48.230Z,34.57
2019-04-07T01:37:49.452Z,34.00
2019-04-07T01:39:53.731Z,34.33
2019-04-07T01:42:05.787Z,33.97
2019-04-07T01:44:17.996Z,33.63
2019-04-07T01:46:31.764Z,33.43
2019-04-07T01:48:46.882Z,33.07
2019-04-07T01:51:01.663Z,35.47
2019-04-07T01:53:10.169Z,32.47
2019-04-07T01:55:21.639Z,33.77
2019-04-07T01:57:27.237Z,34.80
2019-04-07T01:59:48.024Z,32.30
2019-04-07T02:02:09.329Z,33.33
2019-04-07T02:04:23.672Z,33.30
2019-04-07T02:06:38.474Z,32.80
2019-04-07T02:08:56.052Z,32.03
2019-04-07T02:11:01.579Z,34.27
2019-04-07T02:13:16.497Z,36.43
2019-04-07T02:15:22.057Z,33.93
2019-04-07T02:17:30.598Z,36.73
2019-04-07T02:19:36.066Z,38.57
2019-04-07T02:21:58.295Z,37.20
2019-04-07T02:24:03.965Z,34.93
2019-04-07T02:26:09.420Z,35.23
2019-04-07T02:28:17.692Z,36.17
2019-04-07T02:30:39.645Z,33.83
2019-04-07T02:32:46.049Z,35.93
2019-04-07T02:34:51.853Z,35.27
2019-04-07T02:37:03.286Z,36.80
2019-04-07T02:39:24.925Z,33.47
2019-04-07T02:41:30.661Z,35.90
2019-04-07T02:43:42.500Z,33.90
2019-04-07T02:45:54.409Z,31.27
2019-04-07T02:48:08.959Z,32.53
2019-04-07T02:50:20.619Z,33.20
2019-04-07T02:52:32.011Z,31.87
2019-04-07T02:54:54.609Z,30.60
2019-04-07T02:57:14.187Z,28.53
2019-04-07T02:59:20.641Z,29.63
2019-04-07T03:01:43.412Z,31.77
2019-04-07T03:04:05.518Z,32.60
2019-04-07T03:06:33.905Z,34.03
2019-04-07T03:08:32.259Z,34.23
2019-04-07T03:10:47.364Z,35.30
2019-04-07T03:13:09.124Z,35.73
2019-04-07T03:15:20.900Z,36.50
2019-04-07T03:17:29.857Z,37.10
2019-04-07T03:19:45.516Z,35.33
2019-04-07T03:21:57.790Z,34.07
2019-04-07T03:24:03.956Z,34.73
2019-04-07T03:26:18.461Z,33.80
2019-04-07T03:28:39.958Z,33.70
2019-04-07T03:30:56.605Z,34.70
2019-04-07T03:33:03.642Z,36.47
2019-04-07T03:35:28.089Z,31.73
2019-04-07T03:37:53.341Z,30.73
2019-04-07T03:40:05.018Z,32.67
2019-04-07T03:42:10.755Z,32.97
2019-04-07T03:44:16.412Z,34.37
2019-04-07T03:46:34.644Z,36.10
2019-04-07T03:48:43.449Z,37.53
2019-04-07T03:50:52.726Z,35.00
2019-04-07T03:53:01.732Z,33.40
2019-04-07T03:55:09.268Z,32.93
2019-04-07T03:57:24.129Z,30.60
2019-04-07T03:59:38.981Z,31.07
2019-04-07T04:01:45.399Z,29.43
2019-04-07T04:04:07.945Z,25.50
2019-04-07T04:06:17.330Z,26.23
2019-04-07T04:08:23.146Z,27.87
2019-04-07T04:10:45.119Z,31.93
2019-04-07T04:12:51.224Z,30.70
2019-04-07T04:15:06.695Z,32.20
2019-04-07T04:17:11.586Z,29.70
2019-04-07T04:19:16.281Z,32.70
2019-04-07T04:21:22.332Z,29.30
2019-04-07T04:23:26.285Z,27.77
2019-04-07T04:25:30.531Z,32.90
2019-04-07T04:27:35.275Z,33.70
2019-04-07T04:29:39.412Z,33.43
2019-04-07T04:31:43.505Z,35.90
2019-04-07T04:33:48.502Z,36.50
2019-04-07T04:35:52.695Z,38.87
2019-04-07T04:37:56.924Z,37.60
2019-04-07T04:40:01.616Z,39.87
2019-04-07T04:42:06.025Z,36.50
2019-04-07T04:44:10.660Z,36.63
2019-04-07T04:46:15.614Z,39.43
2019-04-07T04:48:19.763Z,34.77
2019-04-07T04:50:25.719Z,35.40
2019-04-07T04:52:29.866Z,33.43
2019-04-07T04:54:33.835Z,34.57
2019-04-07T04:56:37.726Z,31.03
2019-04-07T04:58:42.411Z,35.83
2019-04-07T05:00:46.535Z,33.53
2019-04-07T05:02:50.446Z,30.13
2019-04-07T05:04:57.373Z,29.43
2019-04-07T05:07:01.523Z,32.90
2019-04-07T05:09:07.568Z,30.27
2019-04-07T05:11:11.525Z,32.47
2019-04-07T05:13:15.984Z,31.23
2019-04-07T05:15:20.993Z,28.30
2019-04-07T05:17:25.259Z,31.93
2019-04-07T05:19:29.939Z,31.13
2019-04-07T05:21:35.074Z,30.60
2019-04-07T05:23:39.518Z,34.30
2019-04-07T05:25:43.801Z,35.00
2019-04-07T05:27:49.204Z,31.73
2019-04-07T05:29:53.180Z,34.10
2019-04-07T05:31:57.130Z,32.03
2019-04-07T05:34:01.874Z,38.77
2019-04-07T05:36:05.951Z,38.50
2019-04-07T05:38:11.262Z,36.93
2019-04-07T05:40:15.529Z,37.30
2019-04-07T05:42:20.064Z,38.80
2019-04-07T05:44:24.422Z,40.30
2019-04-07T05:46:28.465Z,36.67
2019-04-07T05:48:32.664Z,36.37
2019-04-07T05:50:36.541Z,38.73
2019-04-07T05:52:40.880Z,38.30
2019-04-07T05:54:45.078Z,39.27
2019-04-07T05:56:49.307Z,37.40
2019-04-07T05:58:53.768Z,37.23
2019-04-07T06:00:58.635Z,35.73
2019-04-07T06:03:07.500Z,37.80
2019-04-07T06:05:08.382Z,39.70
2019-04-07T06:07:12.676Z,38.17
2019-04-07T06:09:18.941Z,39.40
2019-04-07T06:11:22.140Z,40.87
2019-04-07T06:13:26.057Z,41.10
2019-04-07T06:15:30.316Z,42.03
2019-04-07T06:17:34.665Z,40.53
2019-04-07T06:19:41.142Z,41.57
2019-04-07T06:21:47.227Z,41.17
2019-04-07T06:23:49.644Z,39.77
2019-04-07T06:25:56.735Z,39.10
2019-04-07T06:27:59.132Z,40.13
2019-04-07T06:30:04.910Z,38.70
2019-04-07T06:32:10.397Z,38.57
2019-04-07T06:34:15.042Z,37.60
2019-04-07T06:36:20.231Z,37.27
2019-04-07T06:38:31.849Z,38.17
2019-04-07T06:40:30.577Z,37.70
2019-04-07T06:42:34.552Z,37.63
2019-04-07T06:44:38.546Z,32.37
2019-04-07T06:46:46.993Z,37.40
2019-04-07T06:49:01.621Z,34.87
2019-04-07T06:51:07.230Z,35.53
2019-04-07T06:53:17.507Z,34.33
2019-04-07T06:55:26.613Z,33.80
2019-04-07T06:57:37.709Z,34.80
2019-04-07T07:00:02.397Z,35.27
2019-04-07T07:02:15.375Z,35.73
2019-04-07T07:04:23.448Z,34.67
2019-04-07T07:06:30.118Z,34.43
2019-04-07T07:08:47.464Z,33.67
2019-04-07T07:11:09.494Z,28.63
2019-04-07T07:13:26.535Z,34.37
2019-04-07T07:15:39.578Z,33.03
2019-04-07T07:17:57.100Z,29.27
2019-04-07T07:20:03.583Z,31.03
2019-04-07T07:22:18.570Z,28.53
2019-04-07T07:24:25.314Z,25.17
2019-04-07T07:26:32.946Z,27.63
2019-04-07T07:28:34.875Z,30.70
2019-04-07T07:30:39.107Z,28.57
2019-04-07T07:32:43.009Z,28.40
2019-04-07T07:34:47.674Z,26.00
2019-04-07T07:36:57.561Z,26.23
2019-04-07T07:39:02.474Z,29.87
2019-04-07T07:41:06.342Z,30.63
2019-04-07T07:43:10.340Z,29.87
2019-04-07T07:45:14.317Z,28.03
2019-04-07T07:47:21.417Z,28.33
2019-04-07T07:49:25.812Z,24.80
2019-04-07T07:51:30.330Z,27.97
2019-04-07T07:53:34.418Z,23.13
2019-04-07T07:55:38.657Z,21.03
2019-04-07T07:57:43.748Z,27.60
2019-04-07T07:59:47.680Z,22.87
2019-04-07T08:01:52.507Z,20.13
2019-04-07T08:03:56.566Z,26.50
2019-04-07T08:06:05.558Z,18.33
2019-04-07T08:08:07.730Z,24.83
2019-04-07T08:10:13.096Z,28.67
2019-04-07T08:12:21.503Z,25.13
2019-04-07T08:14:27.229Z,26.33
2019-04-07T08:16:31.541Z,26.30
2019-04-07T08:18:37.227Z,21.20
2019-04-07T08:20:44.911Z,18.73
2019-04-07T08:22:47.091Z,24.77
2019-04-07T08:24:51.976Z,20.50
2019-04-07T08:27:00.526Z,24.13
2019-04-07T08:29:06.839Z,22.50
2019-04-07T08:31:11.005Z,24.27
2019-04-07T08:33:15.884Z,18.73
2019-04-07T08:35:23.326Z,18.40
2019-04-07T08:37:27.568Z,22.80
2019-04-07T08:39:35.010Z,21.90
2019-04-07T08:41:39.696Z,17.00
2019-04-07T08:43:45.291Z,16.73
2019-04-07T08:45:49.307Z,23.43
2019-04-07T08:47:53.698Z,16.00
2019-04-07T08:49:58.697Z,19.60
2019-04-07T08:52:07.431Z,21.67
2019-04-07T08:54:08.546Z,18.53
2019-04-07T08:56:12.992Z,20.80
2019-04-07T08:58:25.726Z,23.07
2019-04-07T09:00:26.105Z,20.57
2019-04-07T09:02:31.253Z,23.50
2019-04-07T09:04:35.451Z,18.80
2019-04-07T09:06:39.628Z,24.00
2019-04-07T09:08:43.960Z,16.17
2019-04-07T09:10:58.155Z,24.47
2019-04-07T09:13:06.060Z,23.00
2019-04-07T09:15:12.152Z,19.63
2019-04-07T09:17:30.974Z,25.23
2019-04-07T09:19:28.809Z,26.20
2019-04-07T09:21:49.503Z,18.63
2019-04-07T09:24:07.195Z,18.30
2019-04-07T09:26:29.296Z,19.63
2019-04-07T09:28:34.822Z,26.13
2019-04-07T09:30:40.840Z,25.53
2019-04-07T09:32:50.270Z,23.77
2019-04-07T09:35:12.309Z,20.00
2019-04-07T09:37:22.098Z,24.63
2019-04-07T09:39:31.354Z,21.57
2019-04-07T09:41:42.804Z,19.50
2019-04-07T09:43:48.470Z,21.77
2019-04-07T09:45:57.277Z,23.27
2019-04-07T09:48:21.016Z,24.63
2019-04-07T09:50:34.956Z,24.13
2019-04-07T09:52:43.564Z,22.60
2019-04-07T09:55:04.448Z,21.27
2019-04-07T09:57:10.732Z,25.13
2019-04-07T09:59:23.910Z,24.30
2019-04-07T10:01:33.037Z,20.23
2019-04-07T10:03:50.132Z,20.30
2019-04-07T10:05:55.698Z,19.03
2019-04-07T10:08:12.503Z,22.80
2019-04-07T10:10:23.772Z,23.40
2019-04-07T10:12:30.104Z,23.07
2019-04-07T10:14:38.786Z,26.20
2019-04-07T10:16:50.673Z,27.20
2019-04-07T10:19:15.353Z,22.57
2019-04-07T10:21:26.871Z,23.23
2019-04-07T10:23:38.593Z,25.33
2019-04-07T10:26:01.210Z,25.50
2019-04-07T10:28:13.648Z,21.77
2019-04-07T10:30:32.063Z,25.57
2019-04-07T10:32:54.062Z,22.17
2019-04-07T10:34:59.536Z,24.63
2019-04-07T10:37:17.341Z,22.73
2019-04-07T10:39:25.500Z,23.00
2019-04-07T10:41:40.172Z,21.40
2019-04-07T10:43:54.413Z,20.37
2019-04-07T10:46:15.772Z,20.17
2019-04-07T10:48:24.294Z,18.87
2019-04-07T10:50:44.627Z,19.87
2019-04-07T10:52:58.927Z,20.63
2019-04-07T10:55:14.123Z,18.10
2019-04-07T10:57:23.164Z,18.63
2019-04-07T10:59:32.142Z,18.17
2019-04-07T11:01:56.706Z,18.30
2019-04-07T11:04:19.102Z,18.10
2019-04-07T11:06:24.816Z,16.20
2019-04-07T11:08:33.806Z,17.33
2019-04-07T11:10:48.809Z,17.07
2019-04-07T11:12:54.841Z,17.70
2019-04-07T11:15:00.891Z,17.43
2019-04-07T11:17:22.551Z,16.17
2019-04-07T11:19:44.544Z,14.57
2019-04-07T11:22:05.668Z,15.53
2019-04-07T11:24:20.459Z,15.07
2019-04-07T11:26:26.052Z,14.33
2019-04-07T11:28:31.826Z,13.20
2019-04-07T11:30:38.698Z,13.40
2019-04-07T11:32:47.810Z,12.03
2019-04-07T11:34:53.453Z,12.57
2019-04-07T11:37:09.076Z,12.10
2019-04-07T11:39:15.351Z,13.03
2019-04-07T11:41:30.705Z,11.63
2019-04-07T11:43:53.272Z,9.80
2019-04-07T11:46:03.250Z,10.83
2019-04-07T11:48:24.354Z,10.50
2019-04-07T11:50:30.210Z,10.47
2019-04-07T11:52:52.965Z,9.80
2019-04-07T11:55:07.493Z,10.53
2019-04-07T11:57:13.658Z,10.87
2019-04-07T11:59:20.342Z,10.40
2019-04-07T12:01:26.120Z,9.73
2019-04-07T12:03:41.754Z,9.13
2019-04-07T12:05:53.745Z,10.57
2019-04-07T12:08:16.162Z,9.00
2019-04-07T12:10:38.776Z,9.43
2019-04-07T12:12:49.399Z,9.37
2019-04-07T12:15:07.449Z,9.50
2019-04-07T12:17:16.662Z,8.93
2019-04-07T12:19:26.045Z,9.63
2019-04-07T12:21:41.412Z,10.03
2019-04-07T12:24:03.409Z,9.50
2019-04-07T12:26:09.137Z,9.53
2019-04-07T12:28:31.341Z,9.10
2019-04-07T12:30:47.006Z,9.53
2019-04-07T12:33:05.054Z,9.73
2019-04-07T12:35:21.418Z,9.57
2019-04-07T12:37:37.245Z,10.30
2019-04-07T12:39:51.025Z,9.40
2019-04-07T12:41:58.405Z,9.90
2019-04-07T12:44:23.397Z,9.90
2019-04-07T12:46:29.905Z,9.77
2019-04-07T12:48:36.155Z,9.50
2019-04-07T12:50:51.191Z,9.10
2019-04-07T12:53:00.517Z,9.13
2019-04-07T12:55:08.000Z,8.60
2019-04-07T12:57:13.543Z,10.07
2019-04-07T12:59:37.616Z,9.77
2019-04-07T13:01:48.920Z,9.73
2019-04-07T13:04:10.125Z,8.57
2019-04-07T13:06:24.846Z,8.37
2019-04-07T13:08:30.595Z,8.90
2019-04-07T13:10:39.370Z,8.30
2019-04-07T13:12:58.266Z,8.53
2019-04-07T13:15:20.525Z,8.47
2019-04-07T13:17:38.289Z,8.87
2019-04-07T13:19:46.707Z,9.80
2019-04-07T13:22:02.116Z,8.80
2019-04-07T13:24:28.942Z,9.90
2019-04-07T13:26:41.958Z,9.47
2019-04-07T13:28:50.670Z,9.77
2019-04-07T13:30:56.342Z,10.23
2019-04-07T13:33:13.992Z,10.47
2019-04-07T13:35:29.185Z,9.47
2019-04-07T13:37:38.361Z,8.77
2019-04-07T13:39:48.106Z,8.53
2019-04-07T13:41:56.298Z,9.63
2019-04-07T13:44:07.135Z,8.63
2019-04-07T13:46:22.209Z,8.43
2019-04-07T13:48:32.261Z,9.67
2019-04-07T13:50:51.275Z,7.73
2019-04-07T13:53:15.447Z,8.17
2019-04-07T13:55:40.947Z,7.77
2019-04-07T13:58:01.238Z,8.83
2019-04-07T14:00:25.218Z,8.37
2019-04-07T14:02:47.644Z,7.90
2019-04-07T14:05:11.111Z,7.67
2019-04-07T14:07:19.728Z,7.47
2019-04-07T14:09:31.703Z,7.90
2019-04-07T14:11:52.472Z,7.87
2019-04-07T14:13:59.107Z,7.90
2019-04-07T14:16:07.493Z,7.90
2019-04-07T14:18:29.351Z,8.53
2019-04-07T14:20:51.656Z,8.27
2019-04-07T14:22:57.765Z,8.50
2019-04-07T14:25:12.872Z,8.73
2019-04-07T14:27:27.154Z,7.97
2019-04-07T14:29:49.977Z,7.53
2019-04-07T14:32:02.070Z,7.83
2019-04-07T14:34:07.750Z,6.53
2019-04-07T14:36:26.205Z,7.83
2019-04-07T14:38:31.820Z,7.87
2019-04-07T14:40:46.498Z,7.67
2019-04-07T14:42:52.238Z,7.87
2019-04-07T14:44:57.756Z,7.93
2019-04-07T14:47:16.035Z,8.20
2019-04-07T14:49:21.696Z,7.63
2019-04-07T14:51:32.893Z,7.53
2019-04-07T14:53:50.916Z,7.90
2019-04-07T14:56:08.504Z,8.30
2019-04-07T14:58:18.871Z,7.87
2019-04-07T15:00:33.344Z,7.77
2019-04-07T15:02:37.314Z,7.27
2019-04-07T15:04:43.041Z,7.00
2019-04-07T15:06:49.158Z,7.10
2019-04-07T15:08:55.285Z,6.87
2019-04-07T15:11:16.779Z,7.90
2019-04-07T15:13:25.729Z,8.30
2019-04-07T15:15:28.678Z,8.87
2019-04-07T15:17:32.972Z,8.00
2019-04-07T15:19:36.945Z,8.30
2019-04-07T15:21:41.217Z,8.07
2019-04-07T15:23:47.078Z,8.03
2019-04-07T15:25:51.505Z,7.23
2019-04-07T15:27:58.217Z,7.80
2019-04-07T15:30:02.241Z,7.10
2019-04-07T15:32:07.275Z,7.47
2019-04-07T15:34:13.153Z,6.70
2019-04-07T15:36:18.727Z,7.40
2019-04-07T15:38:25.493Z,6.83
2019-04-07T15:40:28.183Z,8.23
2019-04-07T15:42:40.343Z,7.80
2019-04-07T15:44:39.701Z,8.60
2019-04-07T15:46:43.775Z,7.30
2019-04-07T15:48:48.423Z,7.03
2019-04-07T15:50:52.890Z,8.23
2019-04-07T15:52:56.987Z,7.33
2019-04-07T15:55:01.933Z,8.40
2019-04-07T15:57:06.107Z,7.40
2019-04-07T15:59:10.068Z,6.78
2019-04-07T16:01:14.012Z,7.72
2019-04-07T16:03:17.975Z,7.58
2019-04-07T16:05:22.660Z,7.17
2019-04-07T16:07:27.310Z,6.50
2019-04-07T16:09:39.743Z,6.83
2019-04-07T16:11:36.903Z,6.57
2019-04-07T16:13:40.782Z,6.80
2019-04-07T16:15:45.311Z,7.70
2019-04-07T16:17:50.401Z,7.37
2019-04-07T16:19:55.730Z,6.93
2019-04-07T16:22:00.094Z,8.23
2019-04-07T16:24:06.163Z,7.03
2019-04-07T16:26:11.343Z,6.60
2019-04-07T16:28:16.238Z,6.87
2019-04-07T16:30:20.508Z,6.47
2019-04-07T16:32:26.684Z,7.20
2019-04-07T16:34:39.011Z,6.53
2019-04-07T16:36:51.880Z,7.60
2019-04-07T16:39:03.502Z,6.60
2019-04-07T16:41:08.392Z,6.40
2019-04-07T16:43:16.043Z,7.97
2019-04-07T16:45:18.062Z,7.13
2019-04-07T16:47:24.892Z,6.17
2019-04-07T16:49:28.026Z,7.55
2019-04-07T16:51:33.892Z,7.20
2019-04-07T16:53:39.665Z,6.37
2019-04-07T16:55:48.926Z,6.95
2019-04-07T16:57:50.700Z,6.58
2019-04-07T16:59:54.622Z,6.42
2019-04-07T17:01:59.136Z,6.97
2019-04-07T17:04:03.131Z,6.57
2019-04-07T17:06:07.386Z,6.37
2019-04-07T17:08:11.340Z,6.65
2019-04-07T17:10:15.257Z,7.07
2019-04-07T17:12:19.198Z,7.13
2019-04-07T17:14:23.685Z,7.73
2019-04-07T17:16:27.989Z,7.13
2019-04-07T17:18:43.070Z,6.93
2019-04-07T17:20:47.490Z,6.67
2019-04-07T17:22:51.517Z,7.50
2019-04-07T17:24:58.216Z,7.53
2019-04-07T17:27:02.945Z,7.90
2019-04-07T17:29:07.808Z,6.77
2019-04-07T17:31:11.984Z,7.03
2019-04-07T17:33:15.883Z,6.87
2019-04-07T17:35:21.258Z,6.63
2019-04-07T17:37:27.419Z,6.97
2019-04-07T17:39:38.388Z,7.37
2019-04-07T17:41:41.581Z,7.70
2019-04-07T17:44:00.740Z,7.33
2019-04-07T17:46:12.551Z,6.70
2019-04-07T17:48:38.135Z,6.93
2019-04-07T17:50:37.075Z,7.00
2019-04-07T17:52:42.554Z,7.20
2019-04-07T17:54:54.360Z,6.87
2019-04-07T17:57:03.148Z,7.67
2019-04-07T17:59:17.139Z,7.03
2019-04-07T18:01:39.542Z,7.53
2019-04-07T18:04:02.586Z,8.03
2019-04-07T18:06:24.059Z,6.97
2019-04-07T18:08:29.656Z,7.10
2019-04-07T18:10:51.738Z,7.83
2019-04-07T18:12:57.342Z,7.60
2019-04-07T18:15:19.293Z,6.70
2019-04-07T18:17:36.805Z,8.13
2019-04-07T18:19:43.114Z,7.47
2019-04-07T18:21:55.046Z,7.47
2019-04-07T18:24:13.693Z,7.60
2019-04-07T18:26:28.511Z,8.27
2019-04-07T18:28:34.104Z,8.77
2019-04-07T18:30:51.588Z,8.50
2019-04-07T18:33:00.862Z,8.57
2019-04-07T18:35:23.818Z,8.03
2019-04-07T18:37:29.348Z,8.63
2019-04-07T18:39:40.597Z,8.17
2019-04-07T18:41:56.072Z,8.27
2019-04-07T18:44:05.627Z,8.57
2019-04-07T18:46:08.816Z,8.93
2019-04-07T18:48:30.673Z,8.90
2019-04-07T18:50:37.844Z,9.63
2019-04-07T18:52:43.458Z,9.20
2019-04-07T18:54:55.195Z,9.27
2019-04-07T18:57:04.053Z,10.57
2019-04-07T18:59:21.780Z,11.80
2019-04-07T19:01:43.510Z,10.77
2019-04-07T19:03:58.209Z,10.97
2019-04-07T19:06:08.612Z,11.67
2019-04-07T19:08:20.763Z,10.70
2019-04-07T19:10:45.434Z,11.03
2019-04-07T19:13:01.924Z,12.40
2019-04-07T19:15:07.941Z,13.03
2019-04-07T19:17:25.517Z,10.87
2019-04-07T19:19:36.730Z,10.70
2019-04-07T19:21:59.237Z,12.33
2019-04-07T19:24:11.649Z,11.40
2019-04-07T19:26:20.260Z,11.73
2019-04-07T19:28:37.056Z,12.97
2019-04-07T19:30:46.873Z,13.40
2019-04-07T19:33:08.929Z,13.60
2019-04-07T19:35:38.596Z,12.37
2019-04-07T19:37:48.547Z,10.13
2019-04-07T19:40:10.073Z,13.57
2019-04-07T19:42:19.709Z,15.50
2019-04-07T19:44:37.219Z,14.63
2019-04-07T19:46:52.345Z,13.77
2019-04-07T19:48:57.975Z,13.20
2019-04-07T19:51:12.604Z,15.53
2019-04-07T19:53:27.331Z,15.47
2019-04-07T19:55:37.129Z,15.07
2019-04-07T19:57:48.617Z,13.50
2019-04-07T20:00:00.536Z,15.43
2019-04-07T20:02:09.635Z,13.10
2019-04-07T20:04:18.431Z,16.47
2019-04-07T20:06:27.854Z,15.10
2019-04-07T20:08:37.440Z,16.43
2019-04-07T20:10:58.986Z,14.13
2019-04-07T20:13:05.608Z,14.60
2019-04-07T20:15:20.544Z,15.10
2019-04-07T20:17:30.660Z,15.57
2019-04-07T20:19:55.656Z,16.17
2019-04-07T20:22:07.251Z,14.10
2019-04-07T20:24:19.535Z,17.83
2019-04-07T20:26:35.137Z,17.20
2019-04-07T20:28:47.221Z,15.93
2019-04-07T20:31:08.660Z,18.20
2019-04-07T20:33:23.335Z,16.93
2019-04-07T20:35:32.101Z,15.37
2019-04-07T20:37:37.982Z,18.13
2019-04-07T20:39:44.718Z,17.87
2019-04-07T20:42:08.757Z,17.90
2019-04-07T20:44:31.665Z,17.53
2019-04-07T20:46:34.500Z,17.60
2019-04-07T20:48:51.802Z,19.57
2019-04-07T20:51:06.433Z,17.60
2019-04-07T20:53:16.497Z,19.17
2019-04-07T20:55:28.754Z,18.73
2019-04-07T20:57:34.293Z,17.43
2019-04-07T20:59:50.430Z,17.43
2019-04-07T21:02:06.721Z,18.87
2019-04-07T21:04:26.047Z,17.83
2019-04-07T21:06:31.763Z,18.50
2019-04-07T21:08:40.251Z,18.23
2019-04-07T21:10:46.729Z,18.57
2019-04-07T21:13:07.727Z,19.37
2019-04-07T21:15:25.193Z,18.93
2019-04-07T21:17:23.789Z,17.93
2019-04-07T21:19:45.701Z,19.23
2019-04-07T21:22:06.811Z,18.77
2019-04-07T21:24:25.122Z,19.40
2019-04-07T21:26:47.957Z,20.43
2019-04-07T21:28:54.637Z,19.60
2019-04-07T21:31:01.246Z,21.87
2019-04-07T21:33:07.826Z,15.23
2019-04-07T21:35:19.631Z,16.40
2019-04-07T21:37:45.779Z,17.90
2019-04-07T21:39:48.785Z,18.67
2019-04-07T21:42:10.297Z,19.53
2019-04-07T21:44:18.925Z,23.43
2019-04-07T21:46:24.874Z,23.13
2019-04-07T21:48:33.343Z,21.90
2019-04-07T21:50:51.595Z,22.03
2019-04-07T21:53:01.255Z,21.03
2019-04-07T21:55:11.550Z,25.17
2019-04-07T21:57:27.382Z,24.47
2019-04-07T21:59:33.702Z,23.03
2019-04-07T22:01:41.172Z,24.57
2019-04-07T22:03:52.522Z,23.33
2019-04-07T22:06:16.491Z,24.27
2019-04-07T22:08:22.232Z,24.47
2019-04-07T22:10:26.098Z,23.47
2019-04-07T22:12:30.710Z,23.57
2019-04-07T22:14:37.583Z,24.83
2019-04-07T22:16:40.709Z,25.23
2019-04-07T22:18:45.026Z,25.87
2019-04-07T22:20:52.957Z,24.60
2019-04-07T22:22:59.121Z,25.17
2019-04-07T22:25:00.098Z,25.70
2019-04-07T22:27:05.514Z,25.27
2019-04-07T22:29:09.780Z,25.30
2019-04-07T22:31:15.938Z,25.83
2019-04-07T22:33:25.188Z,25.97
2019-04-07T22:35:26.606Z,26.20
2019-04-07T22:37:30.624Z,27.73
2019-04-07T22:39:34.565Z,27.47
2019-04-07T22:41:41.152Z,26.63
2019-04-07T22:43:47.788Z,28.53
2019-04-07T22:45:59.018Z,26.77
2019-04-07T22:47:59.406Z,27.80
2019-04-07T22:50:05.357Z,26.27
2019-04-07T22:52:10.548Z,26.37
2019-04-07T22:54:14.569Z,26.50
2019-04-07T22:56:18.501Z,26.60
2019-04-07T22:58:23.018Z,24.80
2019-04-07T23:00:28.772Z,25.80
2019-04-07T23:02:32.779Z,27.37
2019-04-07T23:04:38.412Z,27.53
2019-04-07T23:06:42.636Z,26.47
2019-04-07T23:08:46.558Z,25.37
2019-04-07T23:10:53.961Z,24.40
2019-04-07T23:12:58.046Z,25.60
2019-04-07T23:15:02.133Z,25.73
2019-04-07T23:17:06.217Z,26.57
2019-04-07T23:19:10.965Z,26.97
2019-04-07T23:21:15.018Z,25.07
2019-04-07T23:23:19.159Z,25.40
2019-04-07T23:25:23.306Z,24.23
2019-04-07T23:27:27.631Z,24.03
2019-04-07T23:29:32.446Z,24.97
2019-04-07T23:31:40.430Z,26.10
2019-04-07T23:33:44.653Z,23.60
2019-04-07T23:35:49.017Z,27.33
2019-04-07T23:37:54.097Z,27.90
2019-04-07T23:39:58.098Z,26.60
2019-04-07T23:42:02.813Z,25.60
2019-04-07T23:44:09.760Z,24.20
2019-04-07T23:46:20.680Z,26.87
2019-04-07T23:48:19.262Z,26.47
2019-04-07T23:50:23.174Z,23.67
2019-04-07T23:52:27.353Z,26.10
2019-04-07T23:54:31.841Z,26.03
2019-04-07T23:56:36.122Z,26.83
2019-04-07T23:58:41.216Z,26.80
